Terminal Aerodrome Forecast
Issued by NWS

Home | Current Version | Previous Version | Text Only | Print | Product List | Glossary On
Versions: 1 2 3 4 5 6 7 8 9 10 11 12 13 14 15 16 17 18 19 20 21 22 23 24 25 26 27 28 29 30 31 32 33 34 35 36
282
FTUS43 KDTX 301725
TAFPTK
TAF
KPTK 301725Z 3018/0118 10011KT P6SM BKN120 OVC150
     FM302100 10011KT 6SM -RA OVC060
     FM302300 09010KT 4SM -RA OVC045
     FM010100 08010KT 3SM -RA BR OVC012
     FM010300 08010KT 3SM -RA BR OVC006
      TEMPO 0103/0106 1 1/2SM RA BR OVC004
     FM010800 06009KT 4SM BR OVC007
     FM011500 01010KT P6SM OVC015=

USA.gov is the U.S. government's official web portal to all federal, state and local government web resources and services.